Time;durP1;ratioP1;P1;durP2;ratioP2;P2;SDS_P1;SDS_P2;PMS_P1;PMS_P2;Temp;Humidity;BMP_temperature;BMP_pressure;BME280_temperature;BME280_humidity;BME280_pressure;Samples;Min_cycle;Max_cycle;Signal;HPM_P1;HPM_P2
2023/09/29 00:00:59;;;;;;;20.95;15.23;;;19.10;93.60;;;;;;6112292;23;20132;-82
2023/09/29 00:03:31;;;;;;;19.25;14.88;;;19.10;93.60;;;;;;6112824;23;20187;-82
2023/09/29 00:05:57;;;;;;;21.00;15.88;;;19.10;93.70;;;;;;6088059;23;20207;-82
2023/09/29 00:08:23;;;;;;;19.45;14.70;;;19.10;93.70;;;;;;6112511;23;20143;-81
2023/09/29 00:10:53;;;;;;;18.77;14.60;;;19.10;93.70;;;;;;6088341;23;20148;-82
2023/09/29 00:13:23;;;;;;;21.45;15.82;;;19.10;93.70;;;;;;6160678;23;20650;-81
2023/09/29 00:15:52;;;;;;;21.60;15.48;;;19.10;93.70;;;;;;6088290;23;20155;-82
2023/09/29 00:18:18;;;;;;;21.20;15.52;;;19.00;93.70;;;;;;6185215;23;20162;-82
2023/09/29 00:20:48;;;;;;;19.60;15.13;;;19.10;93.70;;;;;;6111980;23;20139;-82
2023/09/29 00:23:18;;;;;;;19.92;15.32;;;19.10;93.70;;;;;;6063488;23;20178;-81
2023/09/29 00:25:44;;;;;;;19.80;15.20;;;19.10;93.60;;;;;;6161043;23;20182;-81
2023/09/29 00:28:13;;;;;;;21.15;15.38;;;19.00;93.60;;;;;;6112506;23;20575;-82
2023/09/29 00:30:42;;;;;;;19.23;15.30;;;19.10;93.60;;;;;;6189080;23;20152;-82
2023/09/29 00:33:09;;;;;;;20.80;15.23;;;19.10;93.60;;;;;;6087800;23;20162;-84
2023/09/29 00:35:40;;;;;;;19.33;14.88;;;19.10;93.60;;;;;;6136314;23;20151;-81
2023/09/29 00:38:10;;;;;;;19.85;15.75;;;19.10;93.60;;;;;;6210660;23;20187;-85
2023/09/29 00:40:38;;;;;;;22.13;14.95;;;19.10;93.60;;;;;;6239296;23;20155;-83
2023/09/29 00:43:09;;;;;;;19.83;15.48;;;19.10;93.60;;;;;;6063358;23;20162;-81
2023/09/29 00:45:40;;;;;;;20.20;15.77;;;19.10;93.60;;;;;;6087668;23;20521;-81
2023/09/29 00:48:09;;;;;;;18.83;14.73;;;19.10;93.50;;;;;;6086176;23;20222;-83
2023/09/29 00:50:35;;;;;;;20.85;15.55;;;19.20;93.50;;;;;;6212855;23;20155;-83
2023/09/29 00:53:07;;;;;;;20.02;15.20;;;19.10;93.50;;;;;;6111624;23;20221;-81
2023/09/29 00:55:36;;;;;;;19.05;14.80;;;19.10;93.50;;;;;;6161331;23;20234;-83
2023/09/29 00:58:04;;;;;;;20.23;15.25;;;19.10;93.50;;;;;;6214059;23;20206;-84
2023/09/29 01:00:37;;;;;;;19.65;15.10;;;19.00;93.50;;;;;;6187002;23;20234;-82
2023/09/29 01:03:05;;;;;;;20.98;15.43;;;19.10;93.60;;;;;;6184750;23;20205;-82
2023/09/29 01:05:41;;;;;;;22.10;15.77;;;19.10;93.60;;;;;;6112087;23;20151;-82
2023/09/29 01:08:12;;;;;;;21.10;15.45;;;19.10;93.50;;;;;;6185277;23;20242;-82
2023/09/29 01:10:40;;;;;;;19.13;15.13;;;19.10;93.50;;;;;;6163461;23;20164;-83
2023/09/29 01:13:08;;;;;;;20.98;15.88;;;19.10;93.50;;;;;;6088774;23;20143;-82
2023/09/29 01:15:40;;;;;;;20.80;15.73;;;19.10;93.50;;;;;;6211906;23;20495;-83
2023/09/29 01:18:09;;;;;;;20.02;15.48;;;19.10;93.50;;;;;;6188924;23;20187;-82
2023/09/29 01:20:37;;;;;;;20.67;16.00;;;19.10;93.60;;;;;;6211085;23;20159;-83
2023/09/29 01:23:07;;;;;;;19.17;15.52;;;19.10;93.60;;;;;;6162935;23;20215;-83
2023/09/29 01:25:41;;;;;;;20.48;15.90;;;19.00;93.60;;;;;;6063271;23;20151;-83
2023/09/29 01:28:12;;;;;;;20.40;15.70;;;19.00;93.60;;;;;;6086797;23;20213;-82
2023/09/29 01:30:41;;;;;;;19.58;15.65;;;19.00;93.60;;;;;;6088810;23;20162;-83
2023/09/29 01:33:08;;;;;;;19.67;14.98;;;19.00;93.60;;;;;;6188470;23;20151;-83
2023/09/29 01:35:34;;;;;;;19.65;15.15;;;19.00;93.60;;;;;;6112503;23;20140;-84
2023/09/29 01:38:06;;;;;;;19.50;14.48;;;19.10;93.60;;;;;;6087762;23;20269;-82
2023/09/29 01:40:35;;;;;;;19.55;15.20;;;19.10;93.60;;;;;;6086869;23;20159;-83
2023/09/29 01:43:03;;;;;;;20.40;15.90;;;19.10;93.60;;;;;;6163759;23;20482;-82
2023/09/29 01:45:32;;;;;;;20.92;15.45;;;19.00;93.70;;;;;;6187848;23;20160;-82
2023/09/29 01:48:02;;;;;;;20.35;15.50;;;19.10;93.70;;;;;;6161655;23;20272;-81
2023/09/29 01:50:32;;;;;;;19.35;14.90;;;19.00;93.60;;;;;;6088808;23;20211;-81
2023/09/29 01:53:00;;;;;;;21.00;15.55;;;19.00;93.60;;;;;;6054753;23;20201;-83
2023/09/29 01:55:26;;;;;;;21.45;16.35;;;19.00;93.60;;;;;;6054166;23;20479;-83
2023/09/29 01:57:57;;;;;;;19.73;14.65;;;19.00;93.60;;;;;;6080424;23;20172;-82
2023/09/29 02:00:29;;;;;;;21.05;14.93;;;19.00;93.50;;;;;;6102387;23;20153;-82
2023/09/29 02:02:54;;;;;;;20.85;15.35;;;19.00;93.60;;;;;;6102556;23;20179;-82
2023/09/29 02:05:20;;;;;;;21.77;15.95;;;19.00;93.60;;;;;;6079255;23;20145;-83
2023/09/29 02:07:51;;;;;;;20.00;15.32;;;19.00;93.60;;;;;;6104167;23;20141;-83
2023/09/29 02:10:20;;;;;;;20.33;15.32;;;19.00;93.70;;;;;;6078724;23;20509;-81
2023/09/29 02:12:57;;;;;;;20.00;15.48;;;19.10;93.60;;;;;;6079790;23;20144;-82
2023/09/29 02:15:29;;;;;;;21.67;15.88;;;19.00;93.60;;;;;;6179064;23;20160;-82
2023/09/29 02:17:57;;;;;;;20.00;15.43;;;19.10;93.50;;;;;;6178839;23;20184;-82
2023/09/29 02:20:30;;;;;;;19.73;14.98;;;19.00;93.50;;;;;;6102585;23;20152;-83
2023/09/29 02:23:02;;;;;;;22.33;16.27;;;19.00;93.60;;;;;;6102526;23;20149;-82
2023/09/29 02:25:32;;;;;;;22.13;15.55;;;19.00;93.60;;;;;;6104957;23;20153;-84
2023/09/29 02:28:01;;;;;;;20.65;16.00;;;19.10;93.60;;;;;;6229839;23;20157;-83
2023/09/29 02:30:27;;;;;;;20.25;15.02;;;19.10;93.60;;;;;;6078845;23;20203;-82
2023/09/29 02:32:55;;;;;;;19.80;15.10;;;19.00;93.60;;;;;;6104051;23;20137;-82
2023/09/29 02:35:24;;;;;;;19.15;14.68;;;19.00;93.60;;;;;;6200222;23;20153;-83
2023/09/29 02:37:52;;;;;;;19.70;14.77;;;19.00;93.60;;;;;;6074437;23;20477;-85
2023/09/29 02:40:19;;;;;;;20.10;15.23;;;19.10;93.50;;;;;;6097493;23;20212;-85
2023/09/29 02:42:46;;;;;;;20.92;15.50;;;19.10;93.50;;;;;;6199453;23;20160;-83
2023/09/29 02:45:12;;;;;;;20.23;15.52;;;19.10;93.90;;;;;;6199932;23;20157;-82
2023/09/29 02:47:40;;;;;;;19.17;15.38;;;19.10;93.60;;;;;;6122418;23;20214;-84
2023/09/29 02:50:11;;;;;;;20.58;15.52;;;19.00;93.60;;;;;;6098519;23;20599;-83
2023/09/29 02:52:38;;;;;;;21.08;15.45;;;19.00;93.60;;;;;;6204019;23;20200;-83
2023/09/29 02:55:05;;;;;;;20.45;15.05;;;19.00;93.60;;;;;;6080236;23;20145;-84
2023/09/29 02:57:31;;;;;;;19.95;15.35;;;18.90;93.60;;;;;;6102537;23;20179;-84
2023/09/29 02:59:58;;;;;;;19.48;15.38;;;19.00;93.60;;;;;;6078271;23;20144;-85
2023/09/29 03:02:24;;;;;;;21.35;15.40;;;19.00;93.60;;;;;;6079061;23;20183;-82
2023/09/29 03:04:51;;;;;;;18.48;14.43;;;18.90;93.60;;;;;;6126552;23;20141;-83
2023/09/29 03:07:18;;;;;;;20.60;15.82;;;19.00;93.70;;;;;;6079731;23;20148;-84
2023/09/29 03:09:45;;;;;;;20.00;15.10;;;19.00;93.70;;;;;;6128481;23;20212;-84
2023/09/29 03:12:11;;;;;;;18.92;14.70;;;19.00;93.70;;;;;;6079464;23;20198;-85
2023/09/29 03:14:37;;;;;;;20.90;16.27;;;19.00;93.60;;;;;;6103872;23;20140;-84
2023/09/29 03:17:07;;;;;;;18.65;14.50;;;19.10;93.60;;;;;;6103346;23;20596;-84
2023/09/29 03:19:36;;;;;;;20.60;14.90;;;19.00;93.60;;;;;;6229720;23;20468;-85
2023/09/29 03:22:07;;;;;;;20.15;15.65;;;19.00;93.60;;;;;;6080805;23;20152;-83
2023/09/29 03:24:38;;;;;;;19.13;14.50;;;19.00;93.60;;;;;;6055007;23;20152;-83
2023/09/29 03:27:05;;;;;;;19.83;15.75;;;19.00;93.60;;;;;;6079573;23;20178;-84
2023/09/29 03:29:36;;;;;;;18.65;14.43;;;19.00;93.60;;;;;;6079389;23;20262;-85
2023/09/29 03:32:04;;;;;;;20.17;15.52;;;19.00;93.60;;;;;;6207425;23;20172;-84
2023/09/29 03:34:31;;;;;;;18.70;14.48;;;19.00;93.70;;;;;;6057314;23;20206;-82
2023/09/29 03:36:58;;;;;;;18.48;14.07;;;19.00;93.60;;;;;;6233784;23;20191;-84
2023/09/29 03:39:25;;;;;;;18.88;14.77;;;19.00;93.60;;;;;;6081244;23;20159;-82
2023/09/29 03:41:59;;;;;;;21.15;14.85;;;18.90;93.60;;;;;;6078722;23;20152;-83
2023/09/29 03:44:27;;;;;;;19.30;14.77;;;19.00;93.60;;;;;;6080355;23;20155;-86
2023/09/29 03:46:56;;;;;;;19.70;15.05;;;18.90;93.60;;;;;;6102354;23;20228;-83
2023/09/29 03:49:30;;;;;;;18.33;14.30;;;19.00;93.60;;;;;;6102560;23;20178;-85
2023/09/29 03:51:56;;;;;;;21.67;15.48;;;19.00;93.60;;;;;;6203946;23;20194;-83
2023/09/29 03:54:23;;;;;;;19.83;14.90;;;19.00;93.60;;;;;;6129912;23;20170;-83
2023/09/29 03:56:52;;;;;;;18.05;14.55;;;19.00;93.50;;;;;;6104818;23;20251;-83
2023/09/29 03:59:19;;;;;;;19.55;15.05;;;19.00;93.50;;;;;;6081622;23;20148;-83
2023/09/29 04:01:50;;;;;;;19.27;14.35;;;19.00;93.50;;;;;;6104331;23;20145;-83
2023/09/29 04:04:23;;;;;;;18.58;14.93;;;19.00;93.50;;;;;;6080227;23;20224;-83
2023/09/29 04:06:54;;;;;;;19.08;15.07;;;19.00;93.60;;;;;;6055401;23;20186;-83
2023/09/29 04:09:20;;;;;;;19.00;14.75;;;18.90;93.90;;;;;;6179933;23;20591;-84
2023/09/29 04:11:50;;;;;;;19.33;14.98;;;19.00;93.60;;;;;;6128936;23;20198;-82
2023/09/29 04:14:16;;;;;;;19.85;15.35;;;18.90;93.70;;;;;;6204424;23;20156;-82
2023/09/29 04:16:47;;;;;;;18.83;14.48;;;18.90;93.70;;;;;;6127857;23;20160;-83
2023/09/29 04:19:14;;;;;;;18.13;14.38;;;18.90;93.60;;;;;;6078981;23;20148;-84
2023/09/29 04:21:40;;;;;;;18.42;14.07;;;18.90;93.60;;;;;;6127832;23;20207;-85
2023/09/29 04:24:06;;;;;;;17.55;13.77;;;19.00;93.60;;;;;;6127980;23;20163;-84
2023/09/29 04:26:32;;;;;;;19.42;14.90;;;19.00;93.60;;;;;;6128191;23;20595;-82
2023/09/29 04:29:03;;;;;;;18.77;14.57;;;18.90;93.60;;;;;;6103840;23;20240;-83
2023/09/29 04:31:33;;;;;;;22.33;16.13;;;18.90;93.70;;;;;;6054936;23;20160;-82
2023/09/29 04:34:02;;;;;;;18.58;14.43;;;18.90;93.70;;;;;;6079474;23;20160;-83
2023/09/29 04:36:32;;;;;;;18.50;14.07;;;18.90;93.70;;;;;;6079607;23;20199;-84
2023/09/29 04:39:01;;;;;;;19.38;14.82;;;19.00;93.70;;;;;;6079051;23;20167;-83
2023/09/29 04:41:30;;;;;;;22.23;15.13;;;18.90;93.60;;;;;;6179378;23;20201;-82
2023/09/29 04:43:56;;;;;;;19.20;14.48;;;19.00;93.70;;;;;;6079509;23;20151;-85
2023/09/29 04:46:24;;;;;;;18.70;14.55;;;18.90;93.60;;;;;;6127168;23;20152;-83
2023/09/29 04:48:53;;;;;;;20.33;14.45;;;18.90;93.60;;;;;;6078328;23;20160;-83
2023/09/29 04:51:19;;;;;;;22.52;15.85;;;19.00;93.60;;;;;;6205426;22;20167;-83
2023/09/29 04:53:45;;;;;;;19.73;15.15;;;19.00;93.60;;;;;;6108719;23;20147;-82
2023/09/29 04:56:11;;;;;;;18.73;14.75;;;18.90;93.60;;;;;;6084286;23;20148;-83
2023/09/29 04:58:38;;;;;;;20.77;15.85;;;19.00;93.60;;;;;;6235814;23;20156;-84
2023/09/29 05:01:05;;;;;;;19.55;14.65;;;18.90;93.60;;;;;;6107904;23;20230;-86
2023/09/29 05:03:32;;;;;;;18.20;14.00;;;18.90;93.60;;;;;;6184565;23;20158;-84
2023/09/29 05:06:01;;;;;;;17.60;14.38;;;18.90;93.60;;;;;;6107428;23;20158;-85
2023/09/29 05:08:26;;;;;;;19.45;14.57;;;19.00;93.60;;;;;;6132343;23;20214;-84
2023/09/29 05:10:52;;;;;;;18.35;14.27;;;18.90;93.50;;;;;;6083898;23;20166;-83
2023/09/29 05:13:18;;;;;;;18.65;14.45;;;18.90;93.60;;;;;;6107519;23;20139;-84
2023/09/29 05:15:48;;;;;;;19.70;14.48;;;18.90;93.60;;;;;;6108190;23;20504;-84
2023/09/29 05:18:15;;;;;;;19.30;14.40;;;18.90;93.50;;;;;;6107832;23;20164;-85
2023/09/29 05:20:45;;;;;;;19.73;14.55;;;19.00;93.50;;;;;;6107761;23;20144;-84
2023/09/29 05:23:12;;;;;;;20.75;14.82;;;19.00;93.60;;;;;;6160946;23;20201;-84
2023/09/29 05:25:39;;;;;;;19.98;14.85;;;18.90;93.60;;;;;;6138049;23;20136;-81
2023/09/29 05:28:05;;;;;;;18.90;13.75;;;18.90;93.60;;;;;;6136852;23;20225;-83
2023/09/29 05:30:31;;;;;;;18.52;14.27;;;18.90;93.60;;;;;;6112253;23;20140;-83
2023/09/29 05:32:57;;;;;;;18.83;14.27;;;18.90;93.70;;;;;;6136482;23;20136;-82
2023/09/29 05:35:27;;;;;;;18.85;14.40;;;18.90;93.70;;;;;;6134914;23;20135;-82
2023/09/29 05:37:53;;;;;;;18.23;14.00;;;18.80;93.70;;;;;;6185762;23;20194;-85
2023/09/29 05:40:23;;;;;;;17.00;13.27;;;18.90;93.70;;;;;;6132973;23;20195;-83
2023/09/29 05:42:50;;;;;;;17.05;13.18;;;18.90;93.40;;;;;;6185546;23;20151;-82
2023/09/29 05:45:20;;;;;;;17.38;13.15;;;19.00;93.20;;;;;;6211645;23;20154;-81
2023/09/29 05:47:51;;;;;;;16.05;13.20;;;19.00;93.20;;;;;;6085378;23;20139;-82
2023/09/29 05:50:21;;;;;;;16.60;12.48;;;19.00;93.10;;;;;;6189403;23;20159;-85
2023/09/29 05:52:52;;;;;;;16.52;13.07;;;19.00;93.10;;;;;;6189041;23;20245;-82
2023/09/29 05:55:17;;;;;;;15.57;12.40;;;18.90;93.10;;;;;;6188602;23;20151;-82
2023/09/29 05:57:46;;;;;;;15.00;11.60;;;18.90;93.10;;;;;;6111534;23;20167;-82
2023/09/29 06:00:13;;;;;;;16.38;12.43;;;18.90;93.10;;;;;;6186411;23;20289;-83
2023/09/29 06:02:43;;;;;;;14.65;11.98;;;18.90;93.10;;;;;;6110851;23;20174;-83
2023/09/29 06:05:10;;;;;;;15.80;11.82;;;18.90;93.20;;;;;;6164417;23;20167;-82
2023/09/29 06:07:37;;;;;;;14.82;11.45;;;18.90;93.20;;;;;;6090436;23;20143;-82
2023/09/29 06:10:07;;;;;;;15.05;12.00;;;18.90;93.20;;;;;;6090923;23;20238;-83
2023/09/29 06:12:35;;;;;;;13.23;11.13;;;18.80;93.20;;;;;;6087394;23;20234;-82
2023/09/29 06:15:02;;;;;;;14.85;11.60;;;18.80;93.20;;;;;;6188069;23;20181;-83
2023/09/29 06:17:28;;;;;;;13.85;11.20;;;18.80;93.20;;;;;;6163083;23;20752;-82
2023/09/29 06:19:54;;;;;;;15.18;11.55;;;18.90;93.30;;;;;;6110842;23;20143;-83
2023/09/29 06:22:22;;;;;;;13.38;10.85;;;18.90;93.30;;;;;;6062889;23;20147;-83
2023/09/29 06:24:49;;;;;;;14.50;10.90;;;18.80;93.30;;;;;;6087486;23;20482;-81
2023/09/29 06:27:16;;;;;;;13.18;10.65;;;18.80;93.30;;;;;;6161960;23;20591;-81
2023/09/29 06:29:46;;;;;;;14.52;11.27;;;18.80;93.30;;;;;;6160489;23;20650;-81
2023/09/29 06:32:13;;;;;;;14.23;10.85;;;18.80;93.30;;;;;;6135959;23;20221;-83
2023/09/29 06:34:42;;;;;;;12.77;10.43;;;18.70;93.20;;;;;;6109632;23;20155;-81
2023/09/29 06:37:11;;;;;;;12.93;10.50;;;18.80;93.30;;;;;;6084815;23;20689;-82
2023/09/29 06:39:37;;;;;;;13.27;10.73;;;18.70;93.20;;;;;;6109771;23;20146;-81
2023/09/29 06:42:07;;;;;;;13.60;10.32;;;18.80;93.20;;;;;;6134768;23;20144;-81
2023/09/29 06:44:33;;;;;;;11.25;9.25;;;18.80;93.20;;;;;;6160399;23;20132;-82
2023/09/29 06:46:59;;;;;;;12.02;9.75;;;18.80;93.20;;;;;;6109870;23;20258;-84
2023/09/29 06:49:26;;;;;;;13.13;9.70;;;18.80;93.10;;;;;;6086856;23;20510;-85
2023/09/29 06:51:51;;;;;;;12.30;10.27;;;18.80;93.00;;;;;;6129025;22;20210;-83
2023/09/29 06:54:17;;;;;;;13.57;10.10;;;18.80;93.00;;;;;;6104784;23;20164;-83
2023/09/29 06:56:43;;;;;;;12.85;10.10;;;18.90;93.00;;;;;;6105207;23;20239;-84
2023/09/29 06:59:09;;;;;;;12.77;9.75;;;18.90;93.00;;;;;;6104711;23;20176;-83
2023/09/29 07:01:36;;;;;;;12.05;9.68;;;18.90;93.00;;;;;;6106394;23;20140;-83
2023/09/29 07:04:05;;;;;;;13.45;10.73;;;18.90;93.00;;;;;;6131102;23;20132;-82
2023/09/29 07:06:35;;;;;;;11.65;9.57;;;18.90;93.00;;;;;;6105716;23;20182;-84
2023/09/29 07:09:03;;;;;;;12.45;10.27;;;18.90;92.90;;;;;;6082697;23;20186;-83
2023/09/29 07:11:32;;;;;;;11.65;9.65;;;18.90;93.00;;;;;;6132345;23;20207;-82
2023/09/29 07:13:59;;;;;;;13.05;9.88;;;18.90;92.90;;;;;;6106598;23;20152;-83
2023/09/29 07:16:32;;;;;;;11.30;9.30;;;18.80;93.00;;;;;;6083045;23;20184;-83
2023/09/29 07:18:57;;;;;;;11.02;8.73;;;18.80;92.90;;;;;;6058277;23;20220;-83
2023/09/29 07:21:23;;;;;;;10.98;8.85;;;18.80;92.80;;;;;;6106849;23;20136;-83
2023/09/29 07:23:51;;;;;;;12.30;9.30;;;18.90;92.70;;;;;;6131255;23;20152;-83
2023/09/29 07:26:23;;;;;;;11.32;9.10;;;18.90;92.80;;;;;;6083673;23;20148;-84
2023/09/29 07:28:51;;;;;;;11.55;9.40;;;18.80;92.90;;;;;;6106975;23;20280;-83
2023/09/29 07:31:17;;;;;;;11.43;8.98;;;18.80;92.80;;;;;;6107561;23;20140;-83
2023/09/29 07:33:44;;;;;;;11.38;9.38;;;18.80;92.90;;;;;;6106094;23;20132;-83
2023/09/29 07:36:10;;;;;;;11.13;8.90;;;18.80;92.90;;;;;;6126393;23;20148;-82
2023/09/29 07:38:39;;;;;;;11.23;8.77;;;18.80;92.90;;;;;;6083220;23;20159;-82
2023/09/29 07:41:08;;;;;;;11.73;9.38;;;18.80;93.00;;;;;;6075733;23;20157;-83
2023/09/29 07:43:40;;;;;;;11.43;8.50;;;18.80;93.00;;;;;;6027714;23;20183;-84
2023/09/29 07:46:35;;;;;;;11.55;9.05;;;18.80;93.00;;;;;;6042897;23;20218;-83
2023/09/29 07:49:02;;;;;;;10.52;8.60;;;18.80;93.00;;;;;;6001367;23;20493;-82
2023/09/29 07:51:29;;;;;;;10.13;8.40;;;18.80;93.00;;;;;;6019258;23;20161;-84
2023/09/29 07:53:57;;;;;;;10.70;7.93;;;18.80;93.00;;;;;;6089521;23;20494;-84
2023/09/29 07:56:34;;;;;;;10.82;8.98;;;18.80;93.00;;;;;;6113289;23;20505;-82
2023/09/29 07:59:05;;;;;;;11.45;8.52;;;18.80;93.00;;;;;;6113634;23;20205;-82
2023/09/29 08:01:34;;;;;;;9.63;8.10;;;18.80;93.00;;;;;;6113900;23;20151;-83
2023/09/29 08:04:02;;;;;;;11.45;8.45;;;18.80;93.00;;;;;;6139083;23;20152;-83
2023/09/29 08:06:35;;;;;;;11.18;8.65;;;18.80;93.00;;;;;;6089484;23;20159;-85
2023/09/29 08:09:03;;;;;;;10.85;8.48;;;18.90;93.00;;;;;;6114203;23;20162;-83
2023/09/29 08:11:29;;;;;;;9.70;8.10;;;18.80;92.90;;;;;;6050882;23;20168;-82
2023/09/29 08:13:55;;;;;;;9.60;7.95;;;18.90;93.00;;;;;;6100015;23;20152;-81
2023/09/29 08:16:21;;;;;;;10.80;8.25;;;18.80;92.90;;;;;;6075599;23;20573;-81
2023/09/29 08:18:47;;;;;;;10.45;8.45;;;18.80;92.90;;;;;;6101053;23;20136;-82
2023/09/29 08:21:14;;;;;;;10.32;8.30;;;18.80;92.90;;;;;;6101516;23;20480;-82
2023/09/29 08:23:40;;;;;;;10.13;7.88;;;18.80;93.00;;;;;;6051339;23;20164;-82
2023/09/29 08:26:10;;;;;;;10.18;8.23;;;18.80;92.90;;;;;;6075158;23;20149;-83
2023/09/29 08:28:39;;;;;;;9.55;7.65;;;18.80;92.90;;;;;;6051945;23;20153;-82
2023/09/29 08:31:15;;;;;;;9.75;7.90;;;18.80;92.90;;;;;;6078425;23;20180;-82
2023/09/29 08:33:42;;;;;;;10.57;8.23;;;18.80;92.90;;;;;;6052743;23;20247;-82
2023/09/29 08:36:08;;;;;;;9.63;8.05;;;18.90;92.90;;;;;;6054829;23;20220;-82
2023/09/29 08:38:34;;;;;;;9.77;7.85;;;18.80;92.90;;;;;;6054310;23;20233;-83
2023/09/29 08:41:02;;;;;;;10.13;7.72;;;18.80;92.90;;;;;;6053134;23;20157;-83
2023/09/29 08:43:28;;;;;;;9.68;7.90;;;18.80;92.90;;;;;;6053075;23;20145;-83
2023/09/29 08:45:57;;;;;;;10.07;7.53;;;18.80;92.90;;;;;;6074817;23;20228;-83
2023/09/29 08:48:25;;;;;;;9.80;7.35;;;18.80;92.80;;;;;;6075014;23;20569;-82
2023/09/29 08:50:56;;;;;;;9.80;7.70;;;18.80;92.90;;;;;;6099891;23;20137;-83
2023/09/29 08:53:26;;;;;;;9.05;7.28;;;18.80;92.80;;;;;;6073181;23;20192;-82
2023/09/29 08:55:57;;;;;;;9.88;7.95;;;18.80;92.90;;;;;;6127196;23;20163;-81
2023/09/29 08:58:28;;;;;;;9.65;7.32;;;18.90;92.90;;;;;;6057241;23;20199;-82
2023/09/29 09:00:55;;;;;;;9.27;7.40;;;18.90;92.90;;;;;;6079399;23;20152;-82
2023/09/29 09:03:22;;;;;;;9.20;7.22;;;18.80;92.90;;;;;;6104501;23;20129;-80
2023/09/29 09:05:53;;;;;;;9.57;7.70;;;18.80;92.90;;;;;;6104110;23;20133;-84
2023/09/29 09:08:23;;;;;;;10.00;7.55;;;18.80;92.90;;;;;;6178911;23;20183;-83
2023/09/29 09:11:02;;;;;;;8.75;7.43;;;18.80;92.90;;;;;;6104114;23;20155;-81
2023/09/29 09:13:28;;;;;;;7.55;6.70;;;18.90;92.90;;;;;;6207148;23;20148;-81
2023/09/29 09:15:56;;;;;;;8.98;7.18;;;18.80;92.90;;;;;;6104345;23;20215;-83
2023/09/29 09:18:24;;;;;;;9.00;7.10;;;18.90;92.90;;;;;;6128839;23;20175;-84
2023/09/29 09:20:52;;;;;;;9.52;7.55;;;18.80;92.80;;;;;;6081354;23;20156;-82
2023/09/29 09:23:18;;;;;;;8.77;7.03;;;18.90;92.90;;;;;;6080945;23;20587;-83
2023/09/29 09:25:43;;;;;;;8.73;7.00;;;18.80;92.80;;;;;;6080186;23;20160;-83
2023/09/29 09:28:19;;;;;;;8.07;6.50;;;18.80;92.80;;;;;;6129466;23;20568;-85
2023/09/29 09:30:46;;;;;;;9.35;7.00;;;18.80;92.80;;;;;;6129810;23;20216;-83
2023/09/29 09:33:21;;;;;;;8.90;6.85;;;18.80;92.80;;;;;;6129212;23;20145;-85
2023/09/29 09:36:02;;;;;;;8.00;6.70;;;18.90;92.80;;;;;;6232357;23;20603;-83
2023/09/29 09:38:35;;;;;;;8.50;7.32;;;18.90;92.70;;;;;;6061824;23;20270;-83
2023/09/29 09:41:01;;;;;;;7.93;7.10;;;18.90;92.70;;;;;;6059647;23;20156;-82
2023/09/29 09:43:29;;;;;;;9.52;6.78;;;18.90;92.70;;;;;;6131636;23;20166;-83
2023/09/29 09:46:03;;;;;;;9.07;7.05;;;18.90;92.60;;;;;;6106231;23;20219;-84
2023/09/29 09:48:35;;;;;;;7.47;6.25;;;18.90;92.60;;;;;;6130573;23;20129;-83
2023/09/29 09:51:02;;;;;;;7.95;6.97;;;18.90;92.60;;;;;;6108018;23;20188;-82
2023/09/29 09:53:33;;;;;;;7.88;6.57;;;18.90;92.60;;;;;;6085264;23;20206;-81
2023/09/29 09:56:06;;;;;;;8.35;6.70;;;18.90;92.50;;;;;;6104434;23;20534;-83
2023/09/29 09:58:32;;;;;;;9.48;7.13;;;18.90;92.50;;;;;;6078090;23;20213;-83
2023/09/29 10:01:04;;;;;;;8.02;6.70;;;18.90;92.40;;;;;;6101117;23;20294;-81
2023/09/29 10:03:30;;;;;;;7.82;6.25;;;18.90;92.40;;;;;;6179287;23;20503;-82
2023/09/29 10:05:57;;;;;;;7.85;6.45;;;19.00;92.40;;;;;;6125507;23;20164;-82
2023/09/29 10:08:30;;;;;;;8.50;6.50;;;18.90;92.30;;;;;;6101651;23;20252;-83
2023/09/29 10:11:12;;;;;;;7.28;6.10;;;19.00;92.30;;;;;;6077406;23;20585;-82
2023/09/29 10:13:44;;;;;;;7.15;5.82;;;18.90;92.20;;;;;;6103727;23;20168;-84
2023/09/29 10:16:21;;;;;;;6.63;5.90;;;18.90;92.00;;;;;;6204121;23;20170;-83
2023/09/29 10:19:00;;;;;;;6.35;5.63;;;18.90;92.00;;;;;;6102833;23;20159;-85
2023/09/29 10:21:39;;;;;;;7.35;5.78;;;19.00;91.90;;;;;;6079793;23;20160;-82
2023/09/29 10:24:05;;;;;;;7.97;5.90;;;18.90;91.90;;;;;;6174087;23;20155;-82
2023/09/29 10:26:51;;;;;;;7.55;6.13;;;19.00;91.90;;;;;;6128651;23;20522;-82
2023/09/29 10:29:24;;;;;;;7.78;5.95;;;19.00;91.90;;;;;;6081213;23;20159;-82
2023/09/29 10:31:51;;;;;;;7.18;5.90;;;19.00;91.80;;;;;;6080668;23;20148;-85
2023/09/29 10:34:21;;;;;;;7.20;6.13;;;19.00;91.80;;;;;;6079260;23;20158;-82
2023/09/29 10:36:55;;;;;;;7.20;6.10;;;19.00;91.80;;;;;;6106184;23;20175;-82
2023/09/29 10:39:27;;;;;;;7.57;6.00;;;19.00;91.80;;;;;;6105051;23;20151;-82
2023/09/29 10:42:13;;;;;;;6.00;5.40;;;19.00;91.70;;;;;;6181235;23;20175;-83
2023/09/29 10:44:47;;;;;;;6.88;5.80;;;19.00;91.60;;;;;;6178231;23;20144;-81
2023/09/29 10:47:16;;;;;;;7.80;5.50;;;19.10;91.70;;;;;;6081415;23;20211;-84
2023/09/29 10:49:49;;;;;;;7.10;5.68;;;19.00;91.70;;;;;;6079974;23;20164;-82
2023/09/29 10:52:23;;;;;;;7.15;5.40;;;19.00;91.60;;;;;;6071779;23;20199;-82
2023/09/29 10:54:56;;;;;;;6.07;5.35;;;19.00;91.60;;;;;;6075667;23;20232;-83
2023/09/29 10:57:28;;;;;;;6.35;5.25;;;19.00;91.40;;;;;;6198214;23;20188;-81
2023/09/29 10:59:59;;;;;;;6.30;5.57;;;19.00;91.40;;;;;;6051658;23;20635;-83
2023/09/29 11:02:33;;;;;;;7.45;5.40;;;19.10;91.40;;;;;;6099407;23;20141;-82
2023/09/29 11:05:03;;;;;;;6.78;5.65;;;19.10;91.40;;;;;;6050633;23;20157;-83
2023/09/29 11:07:29;;;;;;;7.82;5.05;;;19.10;91.30;;;;;;6076630;23;20160;-82
2023/09/29 11:09:59;;;;;;;6.95;4.47;;;19.10;91.20;;;;;;6073494;23;20153;-82
2023/09/29 11:12:27;;;;;;;6.90;5.28;;;19.10;91.10;;;;;;6074937;23;20152;-82
2023/09/29 11:15:07;;;;;;;7.22;5.70;;;19.10;91.10;;;;;;6098488;23;20187;-82
2023/09/29 11:17:50;;;;;;;6.47;5.30;;;19.10;91.10;;;;;;6098379;23;20230;-84
2023/09/29 11:20:26;;;;;;;6.75;5.05;;;19.10;91.10;;;;;;6074137;23;20153;-82
2023/09/29 11:22:59;;;;;;;5.75;5.10;;;19.10;91.10;;;;;;6075027;23;20814;-83
2023/09/29 11:25:25;;;;;;;5.53;4.55;;;19.10;91.00;;;;;;6097601;23;20168;-83
2023/09/29 11:27:51;;;;;;;6.38;4.75;;;19.10;90.90;;;;;;6071764;23;20157;-83
2023/09/29 11:30:20;;;;;;;7.07;5.28;;;19.10;90.90;;;;;;6072119;23;20157;-85
2023/09/29 11:32:47;;;;;;;6.20;4.70;;;19.00;90.90;;;;;;6095385;23;20134;-84
2023/09/29 11:35:16;;;;;;;6.40;5.10;;;19.10;90.90;;;;;;6070066;23;20156;-83
2023/09/29 11:37:43;;;;;;;5.63;4.82;;;19.10;90.90;;;;;;6070232;23;20264;-84
2023/09/29 11:40:11;;;;;;;5.72;4.40;;;19.10;91.00;;;;;;6071128;23;20157;-84
2023/09/29 11:42:40;;;;;;;4.85;4.35;;;19.10;90.80;;;;;;6071637;23;20149;-84
2023/09/29 11:45:08;;;;;;;5.45;4.65;;;19.10;90.80;;;;;;6071679;23;20264;-83
2023/09/29 11:47:37;;;;;;;4.93;4.40;;;19.10;90.90;;;;;;6071195;23;20202;-86
2023/09/29 11:50:04;;;;;;;5.13;4.40;;;19.10;90.70;;;;;;6070460;23;20532;-85
2023/09/29 11:52:32;;;;;;;5.72;4.57;;;19.10;90.80;;;;;;6082380;23;20200;-83
2023/09/29 11:54:58;;;;;;;6.38;4.88;;;19.20;90.70;;;;;;6101477;23;20179;-83
2023/09/29 11:57:28;;;;;;;5.60;4.68;;;19.10;90.70;;;;;;6100455;23;20234;-83
2023/09/29 11:59:54;;;;;;;5.55;4.53;;;19.10;90.60;;;;;;6051658;23;20156;-84
2023/09/29 12:02:22;;;;;;;4.50;4.00;;;19.10;90.60;;;;;;6100470;23;20178;-84
2023/09/29 12:04:52;;;;;;;6.05;4.28;;;19.10;90.50;;;;;;6126648;23;20129;-83
2023/09/29 12:07:17;;;;;;;5.30;4.55;;;19.10;90.60;;;;;;6203147;23;20166;-83
2023/09/29 12:09:43;;;;;;;4.75;4.05;;;19.20;90.50;;;;;;6100629;23;20471;-83
2023/09/29 12:12:09;;;;;;;4.68;4.13;;;19.20;90.50;;;;;;6075935;23;20148;-83
2023/09/29 12:15:04;;;;;;;5.43;4.35;;;19.10;90.40;;;;;;6101040;23;20150;-82
2023/09/29 12:17:30;;;;;;;5.65;4.22;;;19.10;90.50;;;;;;6008016;23;20197;-84
2023/09/29 12:19:56;;;;;;;4.50;4.05;;;19.10;90.40;;;;;;5960770;23;20237;-86
2023/09/29 12:22:22;;;;;;;6.10;4.30;;;19.10;90.40;;;;;;5960881;23;20511;-82
2023/09/29 12:24:49;;;;;;;5.30;4.18;;;19.10;90.40;;;;;;6008845;23;20697;-86
2023/09/29 12:27:15;;;;;;;4.20;3.50;;;19.10;90.30;;;;;;5987444;23;20158;-85
2023/09/29 12:29:41;;;;;;;4.25;3.63;;;19.30;90.30;;;;;;5984045;23;20154;-83
2023/09/29 12:32:07;;;;;;;4.50;4.10;;;19.20;90.20;;;;;;5983962;23;20186;-82
2023/09/29 12:34:41;;;;;;;5.43;4.40;;;19.10;90.20;;;;;;5960398;23;20163;-83
2023/09/29 12:37:08;;;;;;;5.18;3.83;;;19.10;90.30;;;;;;5938259;23;20182;-84
2023/09/29 12:39:39;;;;;;;4.82;4.13;;;19.10;90.20;;;;;;5959605;23;20238;-84
2023/09/29 12:42:09;;;;;;;4.93;4.38;;;19.20;90.20;;;;;;6055908;23;20155;-85
2023/09/29 12:44:39;;;;;;;4.70;3.90;;;19.10;90.20;;;;;;6033043;23;20642;-82